createdAt,value
2017-09-12T00:01:47.317Z,62.70
2017-09-12T00:04:16.388Z,62.80
2017-09-12T00:06:45.685Z,62.90
2017-09-12T00:09:13.751Z,62.90
2017-09-12T00:11:41.185Z,63.00
2017-09-12T00:14:10.566Z,63.10
2017-09-12T00:16:38.023Z,63.10
2017-09-12T00:19:06.166Z,63.10
2017-09-12T00:21:33.605Z,63.20
2017-09-12T00:24:01.481Z,63.10
2017-09-12T00:26:30.061Z,63.10
2017-09-12T00:28:58.659Z,63.20
2017-09-12T00:31:26.147Z,63.30
2017-09-12T00:33:54.348Z,63.30
2017-09-12T00:36:22.243Z,63.20
2017-09-12T00:38:50.468Z,63.20
2017-09-12T00:41:19.381Z,63.20
2017-09-12T00:43:46.841Z,63.40
2017-09-12T00:46:15.802Z,63.70
2017-09-12T00:48:43.961Z,63.70
2017-09-12T00:51:12.245Z,63.70
2017-09-12T00:53:39.692Z,63.90
2017-09-12T00:56:07.165Z,63.70
2017-09-12T00:58:35.469Z,63.80
2017-09-12T01:01:04.220Z,63.90
2017-09-12T01:03:31.693Z,63.90
2017-09-12T01:05:59.908Z,63.60
2017-09-12T01:08:27.418Z,63.70
2017-09-12T01:10:55.379Z,63.70
2017-09-12T01:13:24.409Z,63.70
2017-09-12T01:15:52.941Z,63.90
2017-09-12T01:18:20.821Z,63.90
2017-09-12T01:20:48.292Z,64.00
2017-09-12T01:23:16.286Z,64.10
2017-09-12T01:25:47.134Z,64.30
2017-09-12T01:28:16.925Z,64.40
2017-09-12T01:30:45.905Z,64.40
2017-09-12T01:33:13.353Z,64.40
2017-09-12T01:35:41.096Z,64.30
2017-09-12T01:38:08.841Z,64.20
2017-09-12T01:40:36.317Z,64.30
2017-09-12T01:43:04.077Z,64.40
2017-09-12T01:45:31.521Z,64.30
2017-09-12T01:48:00.050Z,64.30
2017-09-12T01:50:28.804Z,64.30
2017-09-12T01:52:57.780Z,64.40
2017-09-12T01:55:25.217Z,64.30
2017-09-12T01:57:53.270Z,64.40
2017-09-12T02:00:20.751Z,64.40
2017-09-12T02:02:48.485Z,64.50
2017-09-12T02:05:16.696Z,64.60
2017-09-12T02:07:44.149Z,64.50
2017-09-12T02:10:11.599Z,64.60
2017-09-12T02:12:39.586Z,64.50
2017-09-12T02:15:07.931Z,64.70
2017-09-12T02:17:35.377Z,64.70
2017-09-12T02:20:03.601Z,65.00
2017-09-12T02:22:31.821Z,65.10
2017-09-12T02:24:59.838Z,65.00
2017-09-12T02:27:28.413Z,65.10
2017-09-12T02:29:57.515Z,65.20
2017-09-12T02:32:24.991Z,65.00
2017-09-12T02:34:52.562Z,65.10
2017-09-12T02:37:20.047Z,65.30
2017-09-12T02:39:47.957Z,65.40
2017-09-12T02:42:15.404Z,65.20
2017-09-12T02:44:43.574Z,65.00
2017-09-12T02:47:12.228Z,65.10
2017-09-12T02:49:39.698Z,65.10
2017-09-12T02:52:07.942Z,65.40
2017-09-12T02:54:36.182Z,65.40
2017-09-12T02:57:04.142Z,65.40
2017-09-12T02:59:31.617Z,65.20
2017-09-12T03:01:59.441Z,65.20
2017-09-12T03:04:27.700Z,65.20
2017-09-12T03:06:56.164Z,65.00
2017-09-12T03:09:23.709Z,65.00
2017-09-12T03:11:52.698Z,64.90
2017-09-12T03:14:21.162Z,64.90
2017-09-12T03:16:49.852Z,64.90
2017-09-12T03:19:17.280Z,64.90
2017-09-12T03:21:44.745Z,64.70
2017-09-12T03:24:12.446Z,64.40
2017-09-12T03:26:40.146Z,64.40
2017-09-12T03:29:08.134Z,64.80
2017-09-12T03:31:35.579Z,64.50
2017-09-12T03:34:03.560Z,64.50
2017-09-12T03:36:31.012Z,64.70
2017-09-12T03:38:58.480Z,64.70
2017-09-12T03:41:25.929Z,64.70
2017-09-12T03:43:53.761Z,64.60
2017-09-12T03:46:21.756Z,64.80
2017-09-12T03:48:49.216Z,64.80
2017-09-12T03:51:17.426Z,64.80
2017-09-12T03:53:45.416Z,64.80
2017-09-12T03:56:13.183Z,65.10
2017-09-12T03:58:42.361Z,65.10
2017-09-12T04:01:10.971Z,65.10
2017-09-12T04:03:39.293Z,65.10
2017-09-12T04:06:08.245Z,64.70
2017-09-12T04:08:35.689Z,64.70
2017-09-12T04:11:03.147Z,64.90
2017-09-12T04:13:31.796Z,64.70
2017-09-12T04:15:59.237Z,64.70
2017-09-12T04:18:26.712Z,64.70
2017-09-12T04:20:54.154Z,64.50
2017-09-12T04:23:22.990Z,64.20
2017-09-12T04:25:50.654Z,64.60
2017-09-12T04:28:19.037Z,64.80
2017-09-12T04:30:49.817Z,64.60
2017-09-12T04:33:17.248Z,64.70
2017-09-12T04:35:45.215Z,64.80
2017-09-12T04:38:12.697Z,64.90
2017-09-12T04:40:40.165Z,65.10
2017-09-12T04:43:08.020Z,65.60
2017-09-12T04:45:35.498Z,65.90
2017-09-12T04:48:03.965Z,66.40
2017-09-12T04:50:32.289Z,67.00
2017-09-12T04:52:59.736Z,67.00
2017-09-12T04:55:28.337Z,67.30
2017-09-12T04:57:56.711Z,67.60
2017-09-12T05:00:25.137Z,68.10
2017-09-12T05:02:53.172Z,68.10
2017-09-12T05:05:20.665Z,68.30
2017-09-12T05:07:50.638Z,69.10
2017-09-12T05:10:18.621Z,69.00
2017-09-12T05:12:46.821Z,69.60
2017-09-12T05:15:14.294Z,69.60
2017-09-12T05:17:41.850Z,69.80
2017-09-12T05:20:10.026Z,70.00
2017-09-12T05:22:39.707Z,70.10
2017-09-12T05:25:08.469Z,70.20
2017-09-12T05:27:36.800Z,70.40
2017-09-12T05:30:04.476Z,70.30
2017-09-12T05:32:33.237Z,70.30
2017-09-12T05:35:01.679Z,70.30
2017-09-12T05:37:29.342Z,71.10
2017-09-12T05:39:56.853Z,70.50
2017-09-12T05:42:24.986Z,70.60
2017-09-12T05:44:52.577Z,70.40
2017-09-12T05:47:23.621Z,70.40
2017-09-12T05:49:52.345Z,70.30
2017-09-12T05:52:19.878Z,70.20
2017-09-12T05:54:47.401Z,70.20
2017-09-12T05:57:16.050Z,70.30
2017-09-12T05:59:43.510Z,70.20
2017-09-12T06:02:12.098Z,70.20
2017-09-12T06:04:39.853Z,70.10
2017-09-12T06:07:07.647Z,70.10
2017-09-12T06:09:35.098Z,70.10
2017-09-12T06:12:02.734Z,70.20
2017-09-12T06:14:30.685Z,70.60
2017-09-12T06:16:58.326Z,70.70
2017-09-12T06:19:25.806Z,70.90
2017-09-12T06:21:53.639Z,71.00
2017-09-12T06:24:22.091Z,71.20
2017-09-12T06:26:49.866Z,71.30
2017-09-12T06:29:18.918Z,71.30
2017-09-12T06:31:46.384Z,71.30
2017-09-12T06:34:15.351Z,71.20
2017-09-12T06:36:43.583Z,71.10
2017-09-12T06:39:11.023Z,71.00
2017-09-12T06:41:38.492Z,71.00
2017-09-12T06:44:06.713Z,71.20
2017-09-12T06:46:34.688Z,71.20
2017-09-12T06:49:02.126Z,71.20
2017-09-12T06:51:29.636Z,71.10
2017-09-12T06:53:57.432Z,71.10
2017-09-12T06:56:25.877Z,71.10
2017-09-12T06:58:55.160Z,71.40
2017-09-12T07:01:23.042Z,71.30
2017-09-12T07:03:51.686Z,71.50
2017-09-12T07:06:19.836Z,71.50
2017-09-12T07:08:47.334Z,71.50
2017-09-12T07:11:14.785Z,71.60
2017-09-12T07:13:42.336Z,71.40
2017-09-12T07:16:09.861Z,71.70
2017-09-12T07:18:37.360Z,71.20
2017-09-12T07:21:05.630Z,71.20
2017-09-12T07:23:33.949Z,71.70
2017-09-12T07:26:02.077Z,70.90
2017-09-12T07:28:29.540Z,71.50
2017-09-12T07:30:56.995Z,70.80
2017-09-12T07:33:24.448Z,70.90
2017-09-12T07:35:51.917Z,70.80
2017-09-12T07:38:20.122Z,70.50
2017-09-12T07:40:47.656Z,70.50
2017-09-12T07:43:15.097Z,70.30
2017-09-12T07:45:42.825Z,70.10
2017-09-12T07:48:10.737Z,70.10
2017-09-12T07:50:39.588Z,70.00
2017-09-12T07:53:07.868Z,69.80
2017-09-12T07:55:35.345Z,69.60
2017-09-12T07:58:03.887Z,69.20
2017-09-12T08:00:33.370Z,69.00
2017-09-12T08:03:01.069Z,69.00
2017-09-12T08:05:29.654Z,68.50
2017-09-12T08:07:58.261Z,68.50
2017-09-12T08:10:26.496Z,69.00
2017-09-12T08:12:54.570Z,68.30
2017-09-12T08:15:22.977Z,68.60
2017-09-12T08:17:50.436Z,69.00
2017-09-12T08:20:18.221Z,68.20
2017-09-12T08:22:46.100Z,68.80
2017-09-12T08:25:13.918Z,68.80
2017-09-12T08:27:42.299Z,68.90
2017-09-12T08:30:10.531Z,67.30
2017-09-12T08:32:37.991Z,67.30
2017-09-12T08:35:05.459Z,66.80
2017-09-12T08:37:34.496Z,67.60
2017-09-12T08:40:02.666Z,67.50
2017-09-12T08:42:30.119Z,66.80
2017-09-12T08:44:58.364Z,66.80
2017-09-12T08:47:26.746Z,66.70
2017-09-12T08:49:54.982Z,65.50
2017-09-12T08:52:22.423Z,65.50
2017-09-12T08:54:50.879Z,65.30
2017-09-12T08:57:19.055Z,64.30
2017-09-12T08:59:47.433Z,62.80
2017-09-12T09:02:15.400Z,62.80
2017-09-12T09:04:42.839Z,63.90
2017-09-12T09:07:10.619Z,63.60
2017-09-12T09:09:39.001Z,62.80
2017-09-12T09:12:08.241Z,62.90
2017-09-12T09:14:35.715Z,62.10
2017-09-12T09:17:03.184Z,62.10
2017-09-12T09:19:30.650Z,62.10
2017-09-12T09:21:58.130Z,61.80
2017-09-12T09:24:26.110Z,61.80
2017-09-12T09:26:53.944Z,62.20
2017-09-12T09:29:21.394Z,60.90
2017-09-12T09:31:50.905Z,60.30
2017-09-12T09:34:19.147Z,59.80
2017-09-12T09:36:47.197Z,59.80
2017-09-12T09:39:14.661Z,59.50
2017-09-12T09:41:42.873Z,59.70
2017-09-12T09:44:10.312Z,59.70
2017-09-12T09:46:39.217Z,58.80
2017-09-12T09:49:08.093Z,58.40
2017-09-12T09:51:37.778Z,58.00
2017-09-12T09:54:05.962Z,58.00
2017-09-12T09:56:35.243Z,58.20
2017-09-12T09:59:03.572Z,58.20
2017-09-12T10:01:31.516Z,58.50
2017-09-12T10:03:58.950Z,58.10
2017-09-12T10:06:27.001Z,58.40
2017-09-12T10:08:54.441Z,58.70
2017-09-12T10:11:21.878Z,58.70
2017-09-12T10:13:49.422Z,58.40
2017-09-12T10:16:16.953Z,57.40
2017-09-12T10:18:45.093Z,57.90
2017-09-12T10:21:13.298Z,57.80
2017-09-12T10:23:41.374Z,57.80
2017-09-12T10:26:09.941Z,56.60
2017-09-12T10:28:37.385Z,56.60
2017-09-12T10:31:05.255Z,56.30
2017-09-12T10:33:33.471Z,56.70
2017-09-12T10:36:01.205Z,56.70
2017-09-12T10:38:31.004Z,56.10
2017-09-12T10:40:58.773Z,56.30
2017-09-12T10:43:26.228Z,56.60
2017-09-12T10:45:55.710Z,55.90
2017-09-12T10:48:23.580Z,55.90
2017-09-12T10:50:52.338Z,56.20
2017-09-12T10:53:19.977Z,56.10
2017-09-12T10:55:47.617Z,55.10
2017-09-12T10:58:15.326Z,54.80
2017-09-12T11:00:43.632Z,53.50
2017-09-12T11:03:11.111Z,53.40
2017-09-12T11:05:39.849Z,54.30
2017-09-12T11:08:07.309Z,54.70
2017-09-12T11:10:35.597Z,54.60
2017-09-12T11:13:03.892Z,54.60
2017-09-12T11:15:31.336Z,54.20
2017-09-12T11:17:58.783Z,54.00
2017-09-12T11:20:26.250Z,53.90
2017-09-12T11:22:54.794Z,54.90
2017-09-12T11:25:23.364Z,55.60
2017-09-12T11:27:52.285Z,55.90
2017-09-12T11:30:19.745Z,55.90
2017-09-12T11:32:48.245Z,55.40
2017-09-12T11:35:15.697Z,55.40
2017-09-12T11:37:43.338Z,55.20
2017-09-12T11:40:11.813Z,55.40
2017-09-12T11:42:41.097Z,53.10
2017-09-12T11:45:09.409Z,52.80
2017-09-12T11:47:37.307Z,52.80
2017-09-12T11:50:05.312Z,53.40
2017-09-12T11:52:32.884Z,51.90
2017-09-12T11:55:01.044Z,51.40
2017-09-12T11:57:29.270Z,51.30
2017-09-12T11:59:56.705Z,50.40
2017-09-12T12:02:24.675Z,51.60
2017-09-12T12:04:52.150Z,52.10
2017-09-12T12:07:20.629Z,49.00
2017-09-12T12:09:50.393Z,48.70
2017-09-12T12:12:17.833Z,48.70
2017-09-12T12:14:45.303Z,49.30
2017-09-12T12:17:14.669Z,49.30
2017-09-12T12:19:42.108Z,49.30
2017-09-12T12:22:09.559Z,48.90
2017-09-12T12:24:37.904Z,48.60
2017-09-12T12:27:06.905Z,48.90
2017-09-12T12:29:35.154Z,50.10
2017-09-12T12:32:02.905Z,50.10
2017-09-12T12:34:30.746Z,51.00
2017-09-12T12:36:58.187Z,50.40
2017-09-12T12:39:26.453Z,50.70
2017-09-12T12:41:53.888Z,50.70
2017-09-12T12:44:22.127Z,49.00
2017-09-12T12:46:50.057Z,49.00
2017-09-12T12:49:17.548Z,49.30
2017-09-12T12:51:44.993Z,47.80
2017-09-12T12:54:13.442Z,47.80
2017-09-12T12:56:41.913Z,47.30
2017-09-12T12:59:09.753Z,47.10
2017-09-12T13:01:39.285Z,48.60
2017-09-12T13:04:07.510Z,48.70
2017-09-12T13:06:35.461Z,48.90
2017-09-12T13:09:03.347Z,49.80
2017-09-12T13:11:30.785Z,49.00
2017-09-12T13:13:58.224Z,47.40
2017-09-12T13:16:25.696Z,47.90
2017-09-12T13:18:53.476Z,47.00
2017-09-12T13:21:21.710Z,46.40
2017-09-12T13:23:50.007Z,46.40
2017-09-12T13:26:18.053Z,46.70
2017-09-12T13:28:46.001Z,46.30
2017-09-12T13:31:15.184Z,46.10
2017-09-12T13:33:44.469Z,46.30
2017-09-12T13:36:11.998Z,46.20
2017-09-12T13:38:39.527Z,45.50
2017-09-12T13:41:07.037Z,45.00
2017-09-12T13:43:34.477Z,42.60
2017-09-12T13:46:02.667Z,42.90
2017-09-12T13:48:30.127Z,45.40
2017-09-12T13:50:58.298Z,48.10
2017-09-12T13:53:27.452Z,52.30
2017-09-12T13:55:55.428Z,52.30
2017-09-12T13:58:23.313Z,53.40
2017-09-12T14:00:52.390Z,54.90
2017-09-12T14:03:20.601Z,55.90
2017-09-12T14:05:48.782Z,55.80
2017-09-12T14:08:16.268Z,54.10
2017-09-12T14:10:43.708Z,52.30
2017-09-12T14:13:11.192Z,51.80
2017-09-12T14:15:39.073Z,52.30
2017-09-12T14:18:07.425Z,52.70
2017-09-12T14:20:36.235Z,51.30
2017-09-12T14:23:05.036Z,51.20
2017-09-12T14:25:32.964Z,51.70
2017-09-12T14:28:00.428Z,51.40
2017-09-12T14:30:28.313Z,51.70
2017-09-12T14:32:55.765Z,52.30
2017-09-12T14:35:24.006Z,52.40
2017-09-12T14:37:51.777Z,52.30
2017-09-12T14:40:20.301Z,51.30
2017-09-12T14:42:47.746Z,51.30
2017-09-12T14:45:15.820Z,51.60
2017-09-12T14:47:43.795Z,52.50
2017-09-12T14:50:12.724Z,51.60
2017-09-12T14:52:41.132Z,51.60
2017-09-12T14:55:09.904Z,49.90
2017-09-12T14:57:38.634Z,49.50
2017-09-12T15:00:06.760Z,49.50
2017-09-12T15:02:34.943Z,50.50
2017-09-12T15:05:04.558Z,49.60
2017-09-12T15:07:33.141Z,49.80
2017-09-12T15:10:02.639Z,49.90
2017-09-12T15:12:30.489Z,49.80
2017-09-12T15:14:59.102Z,49.70
2017-09-12T15:17:28.322Z,49.70
2017-09-12T15:19:56.838Z,50.30
2017-09-12T15:22:25.440Z,50.30
2017-09-12T15:24:53.804Z,50.90
2017-09-12T15:27:21.283Z,50.90
2017-09-12T15:29:49.584Z,51.30
2017-09-12T15:32:18.057Z,51.20
2017-09-12T15:34:45.858Z,51.50
2017-09-12T15:37:14.461Z,53.80
2017-09-12T15:39:41.915Z,53.80
2017-09-12T15:42:09.367Z,51.00
2017-09-12T15:44:36.827Z,53.30
2017-09-12T15:47:05.206Z,55.20
2017-09-12T15:49:33.510Z,57.40
2017-09-12T15:52:01.001Z,57.20
2017-09-12T15:54:29.707Z,54.30
2017-09-12T15:56:57.774Z,54.30
2017-09-12T15:59:25.249Z,54.90
2017-09-12T16:01:53.218Z,54.40
2017-09-12T16:04:22.234Z,55.00
2017-09-12T16:06:50.145Z,54.90
2017-09-12T16:09:17.617Z,56.70
2017-09-12T16:11:45.085Z,57.00
2017-09-12T16:14:13.090Z,56.70
2017-09-12T16:16:41.906Z,55.80
2017-09-12T16:19:09.368Z,55.80
2017-09-12T16:21:36.833Z,55.10
2017-09-12T16:24:04.980Z,54.50
2017-09-12T16:26:35.704Z,55.70
2017-09-12T16:29:03.217Z,55.70
2017-09-12T16:31:31.268Z,54.50
2017-09-12T16:33:59.651Z,53.60
2017-09-12T16:36:27.140Z,53.60
2017-09-12T16:38:54.616Z,53.20
2017-09-12T16:41:22.905Z,52.60
2017-09-12T16:43:50.413Z,53.20
2017-09-12T16:46:18.710Z,53.40
2017-09-12T16:48:46.451Z,52.90
2017-09-12T16:51:15.503Z,51.70
2017-09-12T16:53:43.403Z,51.70
2017-09-12T16:56:12.719Z,51.00
2017-09-12T16:58:40.585Z,51.00
2017-09-12T17:01:08.741Z,51.10
2017-09-12T17:03:36.175Z,51.00
2017-09-12T17:06:04.091Z,51.80
2017-09-12T17:08:32.803Z,52.50
2017-09-12T17:11:01.538Z,52.40
2017-09-12T17:13:31.021Z,52.40
2017-09-12T17:15:59.538Z,52.70
2017-09-12T17:18:27.021Z,52.70
2017-09-12T17:20:55.869Z,52.70
2017-09-12T17:23:23.843Z,52.60
2017-09-12T17:25:52.298Z,53.20
2017-09-12T17:28:19.945Z,52.90
2017-09-12T17:30:47.567Z,53.10
2017-09-12T17:33:15.741Z,53.20
2017-09-12T17:35:43.796Z,53.10
2017-09-12T17:38:12.039Z,53.30
2017-09-12T17:40:39.871Z,53.30
2017-09-12T17:43:07.569Z,53.50
2017-09-12T17:45:36.187Z,54.40
2017-09-12T17:48:05.108Z,54.60
2017-09-12T17:50:33.425Z,55.00
2017-09-12T17:53:01.174Z,55.00
2017-09-12T17:55:29.123Z,55.10
2017-09-12T17:57:56.953Z,55.10
2017-09-12T18:00:24.400Z,55.30
2017-09-12T18:02:53.083Z,55.10
2017-09-12T18:05:20.932Z,55.70
2017-09-12T18:07:48.844Z,55.30
2017-09-12T18:10:18.211Z,55.70
2017-09-12T18:12:45.661Z,55.70
2017-09-12T18:15:13.718Z,55.80
2017-09-12T18:17:41.930Z,56.00
2017-09-12T18:20:10.418Z,56.00
2017-09-12T18:22:39.009Z,56.10
2017-09-12T18:25:07.013Z,56.20
2017-09-12T18:27:34.593Z,56.40
2017-09-12T18:30:02.074Z,56.60
2017-09-12T18:32:30.636Z,56.80
2017-09-12T18:34:58.461Z,57.00
2017-09-12T18:37:26.686Z,57.50
2017-09-12T18:39:54.321Z,57.40
2017-09-12T18:42:21.895Z,57.40
2017-09-12T18:44:51.190Z,57.50
2017-09-12T18:47:19.862Z,57.70
2017-09-12T18:49:47.355Z,57.70
2017-09-12T18:52:15.047Z,57.90
2017-09-12T18:54:42.700Z,57.90
2017-09-12T18:57:11.113Z,58.10
2017-09-12T18:59:38.574Z,58.40
2017-09-12T19:02:06.457Z,58.70
2017-09-12T19:04:34.706Z,58.90
2017-09-12T19:07:03.670Z,58.80
2017-09-12T19:09:32.473Z,59.10
2017-09-12T19:12:00.693Z,59.20
2017-09-12T19:14:28.151Z,59.10
2017-09-12T19:16:55.629Z,59.20
2017-09-12T19:19:23.700Z,59.30
2017-09-12T19:21:51.155Z,59.30
2017-09-12T19:24:19.299Z,59.40
2017-09-12T19:26:47.329Z,59.30
2017-09-12T19:29:15.569Z,59.90
2017-09-12T19:31:43.866Z,59.90
2017-09-12T19:34:11.989Z,59.90
2017-09-12T19:36:40.249Z,59.90
2017-09-12T19:39:07.726Z,59.80
2017-09-12T19:41:35.729Z,59.90
2017-09-12T19:44:04.698Z,60.20
2017-09-12T19:46:33.800Z,60.20
2017-09-12T19:49:02.351Z,60.50
2017-09-12T19:51:30.421Z,60.40
2017-09-12T19:53:58.669Z,60.60
2017-09-12T19:56:27.755Z,60.60
2017-09-12T19:58:56.377Z,61.10
2017-09-12T20:01:24.482Z,60.70
2017-09-12T20:03:53.259Z,61.70
2017-09-12T20:06:22.128Z,61.10
2017-09-12T20:08:51.191Z,61.30
2017-09-12T20:11:18.646Z,61.30
2017-09-12T20:13:46.983Z,61.20
2017-09-12T20:16:15.047Z,61.20
2017-09-12T20:18:42.538Z,61.00
2017-09-12T20:21:10.241Z,61.20
2017-09-12T20:23:38.259Z,61.10
2017-09-12T20:26:06.193Z,61.30
2017-09-12T20:28:33.906Z,61.10
2017-09-12T20:31:01.849Z,61.20
2017-09-12T20:33:29.342Z,61.20
2017-09-12T20:35:56.825Z,61.10
2017-09-12T20:38:24.794Z,61.40
2017-09-12T20:40:53.058Z,61.50
2017-09-12T20:43:21.415Z,61.60
2017-09-12T20:45:51.398Z,61.50
2017-09-12T20:48:19.678Z,61.70
2017-09-12T20:50:47.145Z,61.70
2017-09-12T20:53:16.351Z,62.10
2017-09-12T20:55:44.592Z,62.10
2017-09-12T20:58:12.711Z,62.10
2017-09-12T21:00:40.610Z,62.40
2017-09-12T21:03:08.075Z,62.60
2017-09-12T21:05:37.047Z,62.90
2017-09-12T21:08:04.529Z,63.00
2017-09-12T21:10:32.911Z,63.20
2017-09-12T21:13:00.415Z,63.10
2017-09-12T21:15:27.925Z,63.10
2017-09-12T21:17:55.413Z,63.20
2017-09-12T21:20:23.913Z,63.30
2017-09-12T21:22:52.939Z,63.40
2017-09-12T21:25:21.328Z,63.80
2017-09-12T21:27:49.591Z,64.20
2017-09-12T21:30:17.996Z,64.50
2017-09-12T21:32:46.730Z,64.50
2017-09-12T21:35:14.177Z,64.70
2017-09-12T21:37:41.830Z,64.80
2017-09-12T21:40:09.456Z,64.80
2017-09-12T21:42:37.990Z,65.20
2017-09-12T21:45:05.993Z,65.10
2017-09-12T21:47:33.865Z,65.20
2017-09-12T21:50:01.343Z,65.30
2017-09-12T21:52:29.820Z,65.40
2017-09-12T21:54:57.653Z,65.60
2017-09-12T21:57:25.466Z,65.70
2017-09-12T21:59:53.850Z,65.80
2017-09-12T22:02:21.993Z,66.00
2017-09-12T22:04:49.907Z,66.10
2017-09-12T22:07:19.283Z,66.50
2017-09-12T22:09:47.943Z,66.50
2017-09-12T22:12:15.426Z,66.50
2017-09-12T22:14:43.961Z,66.60
2017-09-12T22:17:12.195Z,66.50
2017-09-12T22:19:39.648Z,66.50
2017-09-12T22:22:07.150Z,66.40
2017-09-12T22:24:36.693Z,66.80
2017-09-12T22:27:04.975Z,66.20
2017-09-12T22:29:32.544Z,66.10
2017-09-12T22:32:00.316Z,66.30
2017-09-12T22:34:28.710Z,66.10
2017-09-12T22:36:57.612Z,66.10
2017-09-12T22:39:25.176Z,66.10
2017-09-12T22:41:52.989Z,66.30
2017-09-12T22:44:20.921Z,66.10
2017-09-12T22:46:48.868Z,66.30
2017-09-12T22:49:16.420Z,66.30
2017-09-12T22:51:45.592Z,66.40
2017-09-12T22:54:13.229Z,66.30
2017-09-12T22:56:43.033Z,66.60
2017-09-12T22:59:11.854Z,66.60
2017-09-12T23:01:39.883Z,66.50
2017-09-12T23:04:07.360Z,66.40
2017-09-12T23:06:35.253Z,66.30
2017-09-12T23:09:03.774Z,66.10
2017-09-12T23:11:31.230Z,66.10
2017-09-12T23:13:58.708Z,65.90
2017-09-12T23:16:26.916Z,65.80
2017-09-12T23:18:54.962Z,65.80
2017-09-12T23:21:22.548Z,65.60
2017-09-12T23:23:51.421Z,65.50
2017-09-12T23:26:19.193Z,65.50
2017-09-12T23:28:47.438Z,65.50
2017-09-12T23:31:15.685Z,66.00
2017-09-12T23:33:43.154Z,65.50
2017-09-12T23:36:11.373Z,65.50
2017-09-12T23:38:39.596Z,65.40
2017-09-12T23:41:07.047Z,65.40
2017-09-12T23:43:34.504Z,65.20
2017-09-12T23:46:02.794Z,65.10
2017-09-12T23:48:30.973Z,65.20
2017-09-12T23:50:59.713Z,65.20
2017-09-12T23:53:27.197Z,65.40
2017-09-12T23:55:54.881Z,65.30
2017-09-12T23:58:23.893Z,65.20
